Aviation Digital Data Service (ADDS)

Output produced by METARs form (0808 UTC 23 July 2018)
found at http://www.aviationweather.gov/adds/metars/
 
METAR text: KMGW 230753Z AUTO 00000KT 10SM CLR 20/19 A2984 RMK AO2 SLP094 T02000189 $
Conditions at: KMGW (MORGANTOWN , WV, US) observed 0753 UTC 23 July 2018
Temperature: 20.0°C (68°F)
Dewpoint: 18.9°C (66°F) [RH = 93%]
Pressure (altimeter): 29.84 inches Hg (1010.6 mb)
[Sea-level pressure: 1009.4 mb]
Winds: calm
Visibility: 10 or more miles (16+ km)
Ceiling: at least 12,000 feet AGL
Clouds: sky clear below 12,000 feet AGL
Weather:
SOME DATA ABOVE MAY BE INACCURATE!!!
"$" is an indication the sensor requires maintenance

METAR text: KMGW 230653Z AUTO 00000KT 10SM CLR 21/19 A2986 RMK AO2 SLP100 T02110189 $
Conditions at: KMGW (MORGANTOWN , WV, US) observed 0653 UTC 23 July 2018
Temperature: 21.1°C (70°F)
Dewpoint: 18.9°C (66°F) [RH = 87%]
Pressure (altimeter): 29.86 inches Hg (1011.3 mb)
[Sea-level pressure: 1010.0 mb]
Winds: calm
Visibility: 10 or more miles (16+ km)
Ceiling: at least 12,000 feet AGL
Clouds: sky clear below 12,000 feet AGL
Weather:
SOME DATA ABOVE MAY BE INACCURATE!!!
"$" is an indication the sensor requires maintenance

METAR text: KMGW 230553Z AUTO VRB04KT 10SM OVC060 22/18 A2987 RMK AO2 SLP105 60000 T02220183 10222 20200 50005 $
Conditions at: KMGW (MORGANTOWN , WV, US) observed 0553 UTC 23 July 2018
Temperature: 22.2°C (72°F)
Dewpoint: 18.3°C (65°F) [RH = 79%]
Pressure (altimeter): 29.87 inches Hg (1011.6 mb)
[Sea-level pressure: 1010.5 mb]
Winds: variable direction winds at 5 MPH (4 knots; 2.1 m/s)
Visibility: 10 or more miles (16+ km)
Ceiling: 6000 feet AGL
Clouds: overcast cloud deck at 6000 feet AGL
Weather:
SOME DATA ABOVE MAY BE INACCURATE!!!
"$" is an indication the sensor requires maintenance

METAR text: KMGW 230453Z AUTO 13006KT 10SM CLR 21/18 A2988 RMK AO2 SLP107 T02110183 402720156 $
Conditions at: KMGW (MORGANTOWN , WV, US) observed 0453 UTC 23 July 2018
Temperature: 21.1°C (70°F)
Dewpoint: 18.3°C (65°F) [RH = 84%]
Pressure (altimeter): 29.88 inches Hg (1011.9 mb)
[Sea-level pressure: 1010.7 mb]
Winds: from the SE (130 degrees) at 7 MPH (6 knots; 3.1 m/s)
Visibility: 10 or more miles (16+ km)
Ceiling: at least 12,000 feet AGL
Clouds: sky clear below 12,000 feet AGL
Weather:
SOME DATA ABOVE MAY BE INACCURATE!!!
"$" is an indication the sensor requires maintenance

METAR text: KMGW 230353Z AUTO 00000KT 10SM CLR 20/18 A2987 RMK AO2 SLP106 T02000183 $
Conditions at: KMGW (MORGANTOWN , WV, US) observed 0353 UTC 23 July 2018
Temperature: 20.0°C (68°F)
Dewpoint: 18.3°C (65°F) [RH = 90%]
Pressure (altimeter): 29.87 inches Hg (1011.6 mb)
[Sea-level pressure: 1010.6 mb]
Winds: calm
Visibility: 10 or more miles (16+ km)
Ceiling: at least 12,000 feet AGL
Clouds: sky clear below 12,000 feet AGL
Weather:
SOME DATA ABOVE MAY BE INACCURATE!!!
"$" is an indication the sensor requires maintenance

METAR text: KMGW 230253Z 00000KT 10SM CLR 21/18 A2986 RMK AO2 SLP101 60000 T02060183 51010 $
Conditions at: KMGW (MORGANTOWN , WV, US) observed 0253 UTC 23 July 2018
Temperature: 20.6°C (69°F)
Dewpoint: 18.3°C (65°F) [RH = 87%]
Pressure (altimeter): 29.86 inches Hg (1011.3 mb)
[Sea-level pressure: 1010.1 mb]
Winds: calm
Visibility: 10 or more miles (16+ km)
Ceiling: at least 12,000 feet AGL
Clouds: sky clear below 12,000 feet AGL
Weather:
SOME DATA ABOVE MAY BE INACCURATE!!!
"$" is an indication the sensor requires maintenance

METAR text: KMGW 230153Z 00000KT 10SM FEW110 20/19 A2985 RMK AO2 SLP102 BC VLY FG T02000189 $
Conditions at: KMGW (MORGANTOWN , WV, US) observed 0153 UTC 23 July 2018
Temperature: 20.0°C (68°F)
Dewpoint: 18.9°C (66°F) [RH = 93%]
Pressure (altimeter): 29.85 inches Hg (1010.9 mb)
[Sea-level pressure: 1010.2 mb]
Winds: calm
Visibility: 10 or more miles (16+ km)
Ceiling: at least 12,000 feet AGL
Clouds: few clouds at 11000 feet AGL
Weather:
SOME DATA ABOVE MAY BE INACCURATE!!!
"$" is an indication the sensor requires maintenance

METAR text: KMGW 230053Z 00000KT 10SM BKN090 20/19 A2984 RMK AO2 RAE00 TSE2354 SLP097 BC VLY FG P0000 T02000194 $
Conditions at: KMGW (MORGANTOWN , WV, US) observed 0053 UTC 23 July 2018
Temperature: 20.0°C (68°F)
Dewpoint: 19.4°C (67°F) [RH = 96%]
Pressure (altimeter): 29.84 inches Hg (1010.6 mb)
[Sea-level pressure: 1009.7 mb]
Winds: calm
Visibility: 10 or more miles (16+ km)
Ceiling: 9000 feet AGL
Clouds: broken clouds at 9000 feet AGL
Weather:
SOME DATA ABOVE MAY BE INACCURATE!!!
"$" is an indication the sensor requires maintenance

METAR text: KMGW 230000Z 00000KT 10SM FEW018 SCT028 BKN090 20/19 A2983 RMK AO2 RAE00 TSE2354 BC VLY FG P0000 T02000194
Conditions at: KMGW (MORGANTOWN , WV, US) observed 0000 UTC 23 July 2018
Temperature: 20.0°C (68°F)
Dewpoint: 19.4°C (67°F) [RH = 96%]
Pressure (altimeter): 29.83 inches Hg (1010.2 mb)
Winds: calm
Visibility: 10 or more miles (16+ km)
Ceiling: 9000 feet AGL
Clouds: few clouds at 1800 feet AGL
scattered clouds at 2800 feet AGL
broken clouds at 9000 feet AGL
Weather: no significant weather observed at this time

METAR text: KMGW 222353Z 35003KT 6SM TSRA BR SCT029 BKN050 OVC120 20/19 A2983 RMK AO2 RAB27 TSB21 SLP093 TS ALQDS OCNL LGTICCG BC VLY FG P0029 60055 T02000194 10272 20200 51009
Conditions at: KMGW (MORGANTOWN , WV, US) observed 2353 UTC 22 July 2018
Temperature: 20.0°C (68°F)
Dewpoint: 19.4°C (67°F) [RH = 96%]
Pressure (altimeter): 29.83 inches Hg (1010.2 mb)
[Sea-level pressure: 1009.3 mb]
Winds: from the N (350 degrees) at 3 MPH (3 knots; 1.6 m/s)
Visibility: 6 miles (10 km)
Ceiling: 5000 feet AGL
Clouds: scattered clouds at 2900 feet AGL
broken clouds at 5000 feet AGL
overcast cloud deck at 12000 feet AGL
Weather: TSRA BR  (rain associated with thunderstorm(s), mist)

METAR text: KMGW 222351Z 35003KT 5SM TSRA BR BKN029 BKN050 OVC090 20/19 A2983 RMK AO2 RAB27 TSB21 TS ALQDS OCNL LGTICCG BC VLY FG P0029
Conditions at: KMGW (MORGANTOWN , WV, US) observed 2351 UTC 22 July 2018
Temperature: 20.0°C (68°F)
Dewpoint: 19.0°C (66°F) [RH = 94%]
Pressure (altimeter): 29.83 inches Hg (1010.2 mb)
Winds: from the N (350 degrees) at 3 MPH (3 knots; 1.6 m/s)
Visibility: 5 miles (8 km)
Ceiling: 2900 feet AGL
Clouds: broken clouds at 2900 feet AGL
broken clouds at 5000 feet AGL
overcast cloud deck at 9000 feet AGL
Weather: TSRA BR  (rain associated with thunderstorm(s), mist)

METAR text: KMGW 222349Z 36004KT 2SM TSRA BR FEW019 BKN031 OVC090 21/20 A2982 RMK AO2 RAB27 TSB21 TS ALQDS OCNL LGTICCG BC VLY FG P0029
Conditions at: KMGW (MORGANTOWN , WV, US) observed 2349 UTC 22 July 2018
Temperature: 21.0°C (70°F)
Dewpoint: 20.0°C (68°F) [RH = 94%]
Pressure (altimeter): 29.82 inches Hg (1009.9 mb)
Winds: from the N (360 degrees) at 5 MPH (4 knots; 2.1 m/s)
Visibility: 2.00 miles (3.22 km)
Ceiling: 3100 feet AGL
Clouds: few clouds at 1900 feet AGL
broken clouds at 3100 feet AGL
overcast cloud deck at 9000 feet AGL
Weather: TSRA BR  (rain associated with thunderstorm(s), mist)

METAR text: KMGW 222348Z 35003KT 1 1/2SM TSRA BR FEW019 BKN031 OVC090 21/20 A2982 RMK AO2 RAB27 TSB21 TS ALQDS OCNL LGTICCG BC VLY FG P0029
Conditions at: KMGW (MORGANTOWN , WV, US) observed 2348 UTC 22 July 2018
Temperature: 21.0°C (70°F)
Dewpoint: 20.0°C (68°F) [RH = 94%]
Pressure (altimeter): 29.82 inches Hg (1009.9 mb)
Winds: from the N (350 degrees) at 3 MPH (3 knots; 1.6 m/s)
Visibility: 1.50 miles (2.41 km)
Ceiling: 3100 feet AGL
Clouds: few clouds at 1900 feet AGL
broken clouds at 3100 feet AGL
overcast cloud deck at 9000 feet AGL
Weather: TSRA BR  (rain associated with thunderstorm(s), mist)

METAR text: KMGW 222339Z VRB03KT 1/4SM TSRA FG BKN022 BKN032 OVC060 21/21 A2983 RMK AO2 RAB27 TSB21 TS ALQDS OCNL LGTICCG BC VLY FG P0027 T02110206
Conditions at: KMGW (MORGANTOWN , WV, US) observed 2339 UTC 22 July 2018
Temperature: 21.1°C (70°F)
Dewpoint: 20.6°C (69°F) [RH = 97%]
Pressure (altimeter): 29.83 inches Hg (1010.2 mb)
Winds: variable direction winds at 3 MPH (3 knots; 1.6 m/s)
Visibility: 0.25 miles (0.40 km)
Ceiling: 2200 feet AGL
Clouds: broken clouds at 2200 feet AGL
broken clouds at 3200 feet AGL
overcast cloud deck at 6000 feet AGL
Weather: TSRA FG  (rain associated with thunderstorm(s), fog)

METAR text: KMGW 222333Z 20004KT 1 1/2SM TSRA BR FEW017 BKN045 OVC060 21/21 A2984 RMK AO2 RAB27 TSB21 TS S OCNL LGTICCG BC VLY FG P0011 T02110206
Conditions at: KMGW (MORGANTOWN , WV, US) observed 2333 UTC 22 July 2018
Temperature: 21.1°C (70°F)
Dewpoint: 20.6°C (69°F) [RH = 97%]
Pressure (altimeter): 29.84 inches Hg (1010.6 mb)
Winds: from the SSW (200 degrees) at 5 MPH (4 knots; 2.1 m/s)
Visibility: 1.50 miles (2.41 km)
Ceiling: 4500 feet AGL
Clouds: few clouds at 1700 feet AGL
broken clouds at 4500 feet AGL
overcast cloud deck at 6000 feet AGL
Weather: TSRA BR  (rain associated with thunderstorm(s), mist)

METAR text: KMGW 222327Z 14004KT 10SM TSRA FEW033 BKN041 OVC060 21/21 A2984 RMK AO2 RAB27 TSB21 TS S OCNL LGTICCG BC VLY FG P0000 T02110206
Conditions at: KMGW (MORGANTOWN , WV, US) observed 2327 UTC 22 July 2018
Temperature: 21.1°C (70°F)
Dewpoint: 20.6°C (69°F) [RH = 97%]
Pressure (altimeter): 29.84 inches Hg (1010.6 mb)
Winds: from the SE (140 degrees) at 5 MPH (4 knots; 2.1 m/s)
Visibility: 10 or more miles (16+ km)
Ceiling: 4100 feet AGL
Clouds: few clouds at 3300 feet AGL
broken clouds at 4100 feet AGL
overcast cloud deck at 6000 feet AGL
Weather: TSRA  (rain associated with thunderstorm(s))

METAR text: KMGW 222253Z 00000KT 10SM FEW055 SCT095 21/20 A2982 RMK AO2 RAB2156E16 SLP090 BC VLY FG P0000 T02110200
Conditions at: KMGW (MORGANTOWN , WV, US) observed 2253 UTC 22 July 2018
Temperature: 21.1°C (70°F)
Dewpoint: 20.0°C (68°F) [RH = 93%]
Pressure (altimeter): 29.82 inches Hg (1009.9 mb)
[Sea-level pressure: 1009.0 mb]
Winds: calm
Visibility: 10 or more miles (16+ km)
Ceiling: at least 12,000 feet AGL
Clouds: few clouds at 5500 feet AGL
scattered clouds at 9500 feet AGL
Weather: no significant weather observed at this time

METAR text: KMGW 222153Z 00000KT 10SM FEW050 BKN090 OVC110 21/19 A2980 RMK AO2 LTG DSNT N AND NW RAE48 TSB16E35 SLP084 TS MOV NE BC VLY FG P0002 T02110194
Conditions at: KMGW (MORGANTOWN , WV, US) observed 2153 UTC 22 July 2018
Temperature: 21.1°C (70°F)
Dewpoint: 19.4°C (67°F) [RH = 90%]
Pressure (altimeter): 29.80 inches Hg (1009.2 mb)
[Sea-level pressure: 1008.4 mb]
Winds: calm
Visibility: 10 or more miles (16+ km)
Ceiling: 9000 feet AGL
Clouds: few clouds at 5000 feet AGL
broken clouds at 9000 feet AGL
overcast cloud deck at 11000 feet AGL
Weather: no significant weather observed at this time

METAR text: KMGW 222141Z 12003KT 10SM -RA FEW070 SCT090 OVC110 21/19 A2980 RMK AO2 LTG DSNT N TSB16E35 TS MOV NE BC VLY FG P0002 T02060194
Conditions at: KMGW (MORGANTOWN , WV, US) observed 2141 UTC 22 July 2018
Temperature: 20.6°C (69°F)
Dewpoint: 19.4°C (67°F) [RH = 93%]
Pressure (altimeter): 29.80 inches Hg (1009.2 mb)
Winds: from the ESE (120 degrees) at 3 MPH (3 knots; 1.6 m/s)
Visibility: 10 or more miles (16+ km)
Ceiling: 11000 feet AGL
Clouds: few clouds at 7000 feet AGL
scattered clouds at 9000 feet AGL
overcast cloud deck at 11000 feet AGL
Weather: -RA  (light rain)

METAR text: KMGW 222122Z 00000KT 10SM -TSRA FEW070 BKN100 20/19 A2980 RMK AO2 LTG DSNT N AND NW TSB16 OCNL LTGCG TS E MOV E P0001 T02000189
Conditions at: KMGW (MORGANTOWN , WV, US) observed 2122 UTC 22 July 2018
Temperature: 20.0°C (68°F)
Dewpoint: 18.9°C (66°F) [RH = 93%]
Pressure (altimeter): 29.80 inches Hg (1009.2 mb)
Winds: calm
Visibility: 10 or more miles (16+ km)
Ceiling: 10000 feet AGL
Clouds: few clouds at 7000 feet AGL
broken clouds at 10000 feet AGL
Weather: -TSRA  (light rain associated with thunderstorm(s))

METAR text: KMGW 222053Z 23004KT 3SM VCTS +RA BR BKN037 BKN049 OVC075 20/19 A2980 RMK AO2 RAB27 TSB27E50 SLP085 TS ALQDS OCNL LTGCG P0024 60024 T02000189 53006
Conditions at: KMGW (MORGANTOWN , WV, US) observed 2053 UTC 22 July 2018
Temperature: 20.0°C (68°F)
Dewpoint: 18.9°C (66°F) [RH = 93%]
Pressure (altimeter): 29.80 inches Hg (1009.2 mb)
[Sea-level pressure: 1008.5 mb]
Winds: from the SW (230 degrees) at 5 MPH (4 knots; 2.1 m/s)
Visibility: 3 miles (5 km)
Ceiling: 3700 feet AGL
Clouds: broken clouds at 3700 feet AGL
broken clouds at 4900 feet AGL
overcast cloud deck at 7500 feet AGL
Weather: VCTS +RA BR  (thunderstorm in vicinity, heavy rain, mist)

METAR text: KMGW 222036Z VRB04G24KT 7SM -TSRA FEW018 BKN045 BKN055 20/19 A2979 RMK AO2 LTG DSNT SW RAB27 TSB27 OCNL LTGCG TS SW MOV E P0012 T02000189
Conditions at: KMGW (MORGANTOWN , WV, US) observed 2036 UTC 22 July 2018
Temperature: 20.0°C (68°F)
Dewpoint: 18.9°C (66°F) [RH = 93%]
Pressure (altimeter): 29.79 inches Hg (1008.9 mb)
Winds: variable direction winds at 5 MPH (4 knots; 2.1 m/s)
gusting to 28 MPH (24 knots; 12.5 m/s)
Visibility: 7 miles (11 km)
Ceiling: 4500 feet AGL
Clouds: few clouds at 1800 feet AGL
broken clouds at 4500 feet AGL
broken clouds at 5500 feet AGL
Weather: -TSRA  (light rain associated with thunderstorm(s))

METAR text: KMGW 222029Z 21015G24KT 2 1/2SM TSRA FEW035 SCT048 BKN070 23/18 A2979 RMK AO2 LTG DSNT SW RAB27 TSB27 OCNL LTGCG TS SW MOV E P0007 T02330178
Conditions at: KMGW (MORGANTOWN , WV, US) observed 2029 UTC 22 July 2018
Temperature: 23.3°C (74°F)
Dewpoint: 17.8°C (64°F) [RH = 71%]
Pressure (altimeter): 29.79 inches Hg (1008.9 mb)
Winds: from the SSW (210 degrees) at 17 MPH (15 knots; 7.8 m/s)
gusting to 28 MPH (24 knots; 12.5 m/s)
Visibility: 2.50 miles (4.02 km)
Ceiling: 7000 feet AGL
Clouds: few clouds at 3500 feet AGL
scattered clouds at 4800 feet AGL
broken clouds at 7000 feet AGL
Weather: TSRA  (rain associated with thunderstorm(s))

METAR text: KMGW 222012Z 14010KT 10SM VCTS FEW038 SCT050 SCT070 27/19 A2977 RMK AO2 LTG DSNT S AND SW T02670194
Conditions at: KMGW (MORGANTOWN , WV, US) observed 2012 UTC 22 July 2018
Temperature: 26.7°C (80°F)
Dewpoint: 19.4°C (67°F) [RH = 64%]
Pressure (altimeter): 29.77 inches Hg (1008.2 mb)
Winds: from the SE (140 degrees) at 12 MPH (10 knots; 5.2 m/s)
Visibility: 10 or more miles (16+ km)
Ceiling: at least 12,000 feet AGL
Clouds: few clouds at 3800 feet AGL
scattered clouds at 5000 feet AGL
scattered clouds at 7000 feet AGL
Weather: VCTS  (thunderstorm in vicinity)

METAR text: KMGW 221953Z VRB06KT 10SM SCT038 BKN070 26/19 A2977 RMK AO2 LTG DSNT S AND SW SLP071 T02610189
Conditions at: KMGW (MORGANTOWN , WV, US) observed 1953 UTC 22 July 2018
Temperature: 26.1°C (79°F)
Dewpoint: 18.9°C (66°F) [RH = 65%]
Pressure (altimeter): 29.77 inches Hg (1008.2 mb)
[Sea-level pressure: 1007.1 mb]
Winds: variable direction winds at 7 MPH (6 knots; 3.1 m/s)
Visibility: 10 or more miles (16+ km)
Ceiling: 7000 feet AGL
Clouds: scattered clouds at 3800 feet AGL
broken clouds at 7000 feet AGL
Weather: no significant weather observed at this time

METAR text: KMGW 221853Z 00000KT 10SM FEW037 FEW060 27/18 A2977 RMK AO2 SLP070 T02670178
Conditions at: KMGW (MORGANTOWN , WV, US) observed 1853 UTC 22 July 2018
Temperature: 26.7°C (80°F)
Dewpoint: 17.8°C (64°F) [RH = 58%]
Pressure (altimeter): 29.77 inches Hg (1008.2 mb)
[Sea-level pressure: 1007.0 mb]
Winds: calm
Visibility: 10 or more miles (16+ km)
Ceiling: at least 12,000 feet AGL
Clouds: few clouds at 3700 feet AGL
few clouds at 6000 feet AGL
Weather: no significant weather observed at this time

METAR text: KMGW 221753Z VRB04KT 10SM FEW031 26/18 A2978 RMK AO2 SLP074 T02560178 10261 20172 58003
Conditions at: KMGW (MORGANTOWN , WV, US) observed 1753 UTC 22 July 2018
Temperature: 25.6°C (78°F)
Dewpoint: 17.8°C (64°F) [RH = 62%]
Pressure (altimeter): 29.78 inches Hg (1008.5 mb)
[Sea-level pressure: 1007.4 mb]
Winds: variable direction winds at 5 MPH (4 knots; 2.1 m/s)
Visibility: 10 or more miles (16+ km)
Ceiling: at least 12,000 feet AGL
Clouds: few clouds at 3100 feet AGL
Weather: no significant weather observed at this time

METAR text: KMGW 221653Z 16007KT 130V190 10SM FEW100 24/18 A2979 RMK AO2 SLP078 T02440178
Conditions at: KMGW (MORGANTOWN , WV, US) observed 1653 UTC 22 July 2018
Temperature: 24.4°C (76°F)
Dewpoint: 17.8°C (64°F) [RH = 67%]
Pressure (altimeter): 29.79 inches Hg (1008.9 mb)
[Sea-level pressure: 1007.8 mb]
Winds: from the SSE (160 degrees) at 8 MPH (7 knots; 3.6 m/s)
Visibility: 10 or more miles (16+ km)
Ceiling: at least 12,000 feet AGL
Clouds: few clouds at 10000 feet AGL
Weather: no significant weather observed at this time

METAR text: KMGW 221614Z 17004KT 10SM SCT020 BKN100 24/18 A2979 RMK AO2 T02390183
Conditions at: KMGW (MORGANTOWN , WV, US) observed 1614 UTC 22 July 2018
Temperature: 23.9°C (75°F)
Dewpoint: 18.3°C (65°F) [RH = 71%]
Pressure (altimeter): 29.79 inches Hg (1008.9 mb)
Winds: from the S (170 degrees) at 5 MPH (4 knots; 2.1 m/s)
Visibility: 10 or more miles (16+ km)
Ceiling: 10000 feet AGL
Clouds: scattered clouds at 2000 feet AGL
broken clouds at 10000 feet AGL
Weather: no significant weather observed at this time

METAR text: KMGW 221607Z VRB03KT 10SM BKN020 BKN075 OVC095 24/19 A2979 RMK AO2 T02390189
Conditions at: KMGW (MORGANTOWN , WV, US) observed 1607 UTC 22 July 2018
Temperature: 23.9°C (75°F)
Dewpoint: 18.9°C (66°F) [RH = 74%]
Pressure (altimeter): 29.79 inches Hg (1008.9 mb)
Winds: variable direction winds at 3 MPH (3 knots; 1.6 m/s)
Visibility: 10 or more miles (16+ km)
Ceiling: 2000 feet AGL
Clouds: broken clouds at 2000 feet AGL
broken clouds at 7500 feet AGL
overcast cloud deck at 9500 feet AGL
Weather: no significant weather observed at this time

METAR text: KMGW 221553Z 00000KT 10SM SCT019 BKN090 24/19 A2979 RMK AO2 SLP080 T02390189
Conditions at: KMGW (MORGANTOWN , WV, US) observed 1553 UTC 22 July 2018
Temperature: 23.9°C (75°F)
Dewpoint: 18.9°C (66°F) [RH = 74%]
Pressure (altimeter): 29.79 inches Hg (1008.9 mb)
[Sea-level pressure: 1008.0 mb]
Winds: calm
Visibility: 10 or more miles (16+ km)
Ceiling: 9000 feet AGL
Clouds: scattered clouds at 1900 feet AGL
broken clouds at 9000 feet AGL
Weather: no significant weather observed at this time

METAR text: KMGW 221453Z COR VRB03KT 10SM SCT018 SCT110 22/18 A2979 RMK AO2 SLP078 T02220183 53007
Conditions at: KMGW (MORGANTOWN , WV, US) observed 1453 UTC 22 July 2018
Temperature: 22.2°C (72°F)
Dewpoint: 18.3°C (65°F) [RH = 79%]
Pressure (altimeter): 29.79 inches Hg (1008.9 mb)
[Sea-level pressure: 1007.8 mb]
Winds: variable direction winds at 3 MPH (3 knots; 1.6 m/s)
Visibility: 10 or more miles (16+ km)
Ceiling: at least 12,000 feet AGL
Clouds: scattered clouds at 1800 feet AGL
scattered clouds at 11000 feet AGL
Weather: no significant weather observed at this time

METAR text: KMGW 221353Z 00000KT 10SM FEW018 SCT038 21/18 A2978 RMK AO2 SLP076 T02060178
Conditions at: KMGW (MORGANTOWN , WV, US) observed 1353 UTC 22 July 2018
Temperature: 20.6°C (69°F)
Dewpoint: 17.8°C (64°F) [RH = 84%]
Pressure (altimeter): 29.78 inches Hg (1008.5 mb)
[Sea-level pressure: 1007.6 mb]
Winds: calm
Visibility: 10 or more miles (16+ km)
Ceiling: at least 12,000 feet AGL
Clouds: few clouds at 1800 feet AGL
scattered clouds at 3800 feet AGL
Weather: no significant weather observed at this time

METAR text: KMGW 221253Z 00000KT 10SM FEW013 SCT031 19/17 A2977 RMK AO2 SLP074 T01940167
Conditions at: KMGW (MORGANTOWN , WV, US) observed 1253 UTC 22 July 2018
Temperature: 19.4°C (67°F)
Dewpoint: 16.7°C (62°F) [RH = 84%]
Pressure (altimeter): 29.77 inches Hg (1008.2 mb)
[Sea-level pressure: 1007.4 mb]
Winds: calm
Visibility: 10 or more miles (16+ km)
Ceiling: at least 12,000 feet AGL
Clouds: few clouds at 1300 feet AGL
scattered clouds at 3100 feet AGL
Weather: no significant weather observed at this time

METAR text: KMGW 221244Z 00000KT 10SM SCT013 BKN031 18/16 A2977 RMK AO2 T01830161
Conditions at: KMGW (MORGANTOWN , WV, US) observed 1244 UTC 22 July 2018
Temperature: 18.3°C (65°F)
Dewpoint: 16.1°C (61°F) [RH = 87%]
Pressure (altimeter): 29.77 inches Hg (1008.2 mb)
Winds: calm
Visibility: 10 or more miles (16+ km)
Ceiling: 3100 feet AGL
Clouds: scattered clouds at 1300 feet AGL
broken clouds at 3100 feet AGL
Weather: no significant weather observed at this time

METAR text: KMGW 221211Z 00000KT 10SM OVC014 18/16 A2978 RMK AO2 T01780161
Conditions at: KMGW (MORGANTOWN , WV, US) observed 1211 UTC 22 July 2018
Temperature: 17.8°C (64°F)
Dewpoint: 16.1°C (61°F) [RH = 90%]
Pressure (altimeter): 29.78 inches Hg (1008.5 mb)
Winds: calm
Visibility: 10 or more miles (16+ km)
Ceiling: 1400 feet AGL
Clouds: overcast cloud deck at 1400 feet AGL
Weather: no significant weather observed at this time

METAR text: KMGW 221153Z 00000KT 10SM BKN015 OVC021 18/16 A2977 RMK AO2 SLP072 T01780161 10183 20156 53013
Conditions at: KMGW (MORGANTOWN , WV, US) observed 1153 UTC 22 July 2018
Temperature: 17.8°C (64°F)
Dewpoint: 16.1°C (61°F) [RH = 90%]
Pressure (altimeter): 29.77 inches Hg (1008.2 mb)
[Sea-level pressure: 1007.2 mb]
Winds: calm
Visibility: 10 or more miles (16+ km)
Ceiling: 1500 feet AGL
Clouds: broken clouds at 1500 feet AGL
overcast cloud deck at 2100 feet AGL
Weather: no significant weather observed at this time

METAR text: KMGW 221106Z 00000KT 10SM SCT018 BKN023 17/16 A2976 RMK AO2 T01670156
Conditions at: KMGW (MORGANTOWN , WV, US) observed 1106 UTC 22 July 2018
Temperature: 16.7°C (62°F)
Dewpoint: 15.6°C (60°F) [RH = 93%]
Pressure (altimeter): 29.76 inches Hg (1007.9 mb)
Winds: calm
Visibility: 10 or more miles (16+ km)
Ceiling: 2300 feet AGL
Clouds: scattered clouds at 1800 feet AGL
broken clouds at 2300 feet AGL
Weather: no significant weather observed at this time

METAR text: KMGW 221053Z 00000KT 10SM FEW023 16/16 A2975 RMK AO2 SLP066 T01610156
Conditions at: KMGW (MORGANTOWN , WV, US) observed 1053 UTC 22 July 2018
Temperature: 16.1°C (61°F)
Dewpoint: 15.6°C (60°F) [RH = 97%]
Pressure (altimeter): 29.75 inches Hg (1007.5 mb)
[Sea-level pressure: 1006.6 mb]
Winds: calm
Visibility: 10 or more miles (16+ km)
Ceiling: at least 12,000 feet AGL
Clouds: few clouds at 2300 feet AGL
Weather: no significant weather observed at this time

METAR text: KMGW 221021Z AUTO 00000KT 10SM SCT021 16/15 A2975 RMK AO2 T01610150
Conditions at: KMGW (MORGANTOWN , WV, US) observed 1021 UTC 22 July 2018
Temperature: 16.1°C (61°F)
Dewpoint: 15.0°C (59°F) [RH = 93%]
Pressure (altimeter): 29.75 inches Hg (1007.5 mb)
Winds: calm
Visibility: 10 or more miles (16+ km)
Ceiling: at least 12,000 feet AGL
Clouds: scattered clouds at 2100 feet AGL
Weather: automated observation with no human augmentation;
there may or may not be significant weather present at this time

METAR text: KMGW 220953Z AUTO 00000KT 10SM OVC020 17/16 A2974 RMK AO2 SLP062 T01670156
Conditions at: KMGW (MORGANTOWN , WV, US) observed 0953 UTC 22 July 2018
Temperature: 16.7°C (62°F)
Dewpoint: 15.6°C (60°F) [RH = 93%]
Pressure (altimeter): 29.74 inches Hg (1007.2 mb)
[Sea-level pressure: 1006.2 mb]
Winds: calm
Visibility: 10 or more miles (16+ km)
Ceiling: 2000 feet AGL
Clouds: overcast cloud deck at 2000 feet AGL
Weather: automated observation with no human augmentation;
there may or may not be significant weather present at this time

METAR text: KMGW 220939Z AUTO 00000KT 10SM BKN019 16/15 A2974 RMK AO2 T01610150
Conditions at: KMGW (MORGANTOWN , WV, US) observed 0939 UTC 22 July 2018
Temperature: 16.1°C (61°F)
Dewpoint: 15.0°C (59°F) [RH = 93%]
Pressure (altimeter): 29.74 inches Hg (1007.2 mb)
Winds: calm
Visibility: 10 or more miles (16+ km)
Ceiling: 1900 feet AGL
Clouds: broken clouds at 1900 feet AGL
Weather: automated observation with no human augmentation;
there may or may not be significant weather present at this time

METAR text: KMGW 220853Z AUTO 00000KT 10SM CLR 16/15 A2973 RMK AO2 SLP058 T01610150 56014
Conditions at: KMGW (MORGANTOWN , WV, US) observed 0853 UTC 22 July 2018
Temperature: 16.1°C (61°F)
Dewpoint: 15.0°C (59°F) [RH = 93%]
Pressure (altimeter): 29.73 inches Hg (1006.9 mb)
[Sea-level pressure: 1005.8 mb]
Winds: calm
Visibility: 10 or more miles (16+ km)
Ceiling: at least 12,000 feet AGL
Clouds: sky clear below 12,000 feet AGL
Weather: automated observation with no human augmentation;
there may or may not be significant weather present at this time